EDT,Max TemperatureF,Mean TemperatureF,Min TemperatureF,Max Dew PointF,MeanDew PointF,Min DewpointF,Max Humidity, Mean Humidity, Min Humidity, Max Sea Level PressureIn, Mean Sea Level PressureIn, Min Sea Level PressureIn, Max VisibilityMiles, Mean VisibilityMiles, Min VisibilityMiles, Max Wind SpeedMPH, Mean Wind SpeedMPH, Max Gust SpeedMPH,PrecipitationIn, CloudCover, Events, WindDirDegrees
2013-6-1,90,82,73,74,72,70,94,83,52,30.03,30.00,29.96,10,10,9,15,6,21,T,5,Rain,97
2013-6-2,91,82,72,74,72,69,100,76,52,30.00,29.97,29.92,10,10,10,15,5,20,0.00,1,,179
2013-6-3,85,80,74,74,72,69,94,80,65,30.02,29.96,29.93,10,10,10,21,5,25,0.03,5,Rain,176
2013-6-4,82,77,72,74,72,70,94,87,79,30.04,30.00,29.96,10,10,9,16,6,23,0.02,6,Rain,121
2013-6-5,79,77,75,76,74,72,94,92,88,30.01,29.93,29.87,10,10,7,14,9,21,0.31,4,Rain,109
2013-6-6,82,77,71,79,73,69,94,91,74,29.88,29.81,29.76,10,7,1,25,11,32,1.78,7,Rain,180
2013-6-7,84,80,75,75,73,69,100,84,65,29.99,29.90,29.82,10,10,10,15,4,20,0.00,4,,239
2013-6-8,90,83,75,76,74,71,94,78,56,30.11,30.04,29.97,10,10,10,16,7,21,0.00,2,,158
2013-6-9,93,84,75,74,72,69,94,75,49,30.10,30.06,30.01,10,10,9,16,7,20,0.00,1,,119
2013-6-10,92,84,75,75,73,68,94,75,47,30.09,30.05,30.01,10,10,7,14,6,21,0.00,2,,94
2013-6-11,94,82,70,76,72,67,94,82,49,30.09,30.05,29.97,10,8,0,33,5,43,1.45,3,Fog-Rain-Thunderstorm,81
2013-6-12,92,82,71,76,72,68,94,84,49,30.10,30.06,30.01,10,8,0,24,3,30,0.93,2,Fog-Rain,109
2013-6-13,89,80,71,75,72,69,94,80,57,30.06,30.01,29.94,10,10,8,15,3,18,0.01,1,Thunderstorm,276
2013-6-14,89,82,75,76,73,70,94,76,55,29.98,29.94,29.90,10,10,10,15,6,22,0.00,1,,278
2013-6-15,91,83,74,75,73,70,94,74,52,30.05,30.00,29.94,10,10,10,15,4,20,0.00,2,,287
2013-6-16,91,84,76,75,74,72,94,80,56,30.10,30.06,30.02,10,10,8,17,4,23,0.04,4,Rain-Thunderstorm,98
2013-6-17,93,84,75,76,73,69,94,74,49,30.08,30.05,29.99,10,9,1,18,3,24,0.66,3,Rain-Thunderstorm,181
2013-6-18,91,83,75,76,74,72,94,77,56,30.07,30.03,29.98,10,9,2,13,5,23,0.04,2,Rain,207
2013-6-19,92,84,75,76,73,68,94,76,52,30.06,30.03,29.99,10,10,5,20,5,24,T,2,Rain,144
2013-6-20,88,81,74,75,72,70,93,79,59,30.10,30.07,30.04,10,9,1,22,4,31,0.18,2,Rain-Thunderstorm,119
2013-6-21,88,80,72,74,71,67,93,80,59,30.15,30.09,30.04,10,8,0,22,3,31,2.73,3,Fog-Rain-Thunderstorm,327
2013-6-22,92,83,73,74,71,65,94,71,41,30.12,30.07,30.02,10,10,9,12,4,16,0.00,2,Thunderstorm,120
2013-6-23,92,84,75,73,72,69,94,75,49,30.14,30.09,30.06,10,10,10,18,5,25,T,2,Thunderstorm,96
2013-6-24,92,83,74,74,72,67,94,74,44,30.17,30.12,30.07,10,10,10,17,6,23,T,2,,102
2013-6-25,94,85,75,74,71,67,88,72,44,30.14,30.08,30.01,10,10,10,23,5,32,0.00,1,,94
2013-6-26,89,81,72,75,72,69,94,86,63,30.07,30.05,30.02,10,9,0,24,5,31,0.47,2,Fog-Rain,119
2013-6-27,89,81,72,75,72,69,100,80,59,30.06,30.01,29.97,10,9,2,22,3,30,0.18,3,Rain-Thunderstorm,116
2013-6-28,89,82,74,75,73,71,100,75,59,29.99,29.94,29.88,10,10,10,15,4,21,0.00,1,Thunderstorm,251
2013-6-29,90,83,76,75,73,71,94,75,56,29.90,29.88,29.84,10,10,10,16,7,23,0.01,2,,208
2013-6-30,89,82,74,76,74,73,91,83,59,29.92,29.87,29.83,10,9,0,20,9,26,1.49,4,Fog-Rain-Thunderstorm,169